Time;durP1;ratioP1;P1;durP2;ratioP2;P2;SDS_P1;SDS_P2;PMS_P1;PMS_P2;Temp;Humidity;BMP_temperature;BMP_pressure;BME280_temperature;BME280_humidity;BME280_pressure;Samples;Min_cycle;Max_cycle;Signal;HPM_P1;HPM_P2
2024/02/02 00:01:53;;;;;;;59.30;34.33;;;3.20;97.30;;;;;;6184286;23;20178;-61
2024/02/02 00:04:20;;;;;;;59.87;35.17;;;3.10;97.40;;;;;;6187256;23;20175;-61
2024/02/02 00:06:48;;;;;;;70.40;37.47;;;3.10;97.40;;;;;;6187848;23;20552;-61
2024/02/02 00:09:15;;;;;;;61.43;36.60;;;3.00;97.40;;;;;;6187274;23;20541;-61
2024/02/02 00:11:43;;;;;;;67.93;37.00;;;3.00;97.50;;;;;;6187041;23;20183;-61
2024/02/02 00:14:11;;;;;;;61.00;36.40;;;3.00;97.60;;;;;;6186159;23;20180;-61
2024/02/02 00:16:40;;;;;;;60.83;36.30;;;3.10;97.70;;;;;;6186121;23;20182;-61
2024/02/02 00:19:08;;;;;;;63.97;36.17;;;3.10;97.90;;;;;;6161643;23;20213;-61
2024/02/02 00:21:36;;;;;;;70.33;37.17;;;3.10;97.60;;;;;;6186681;23;20286;-61
2024/02/02 00:24:03;;;;;;;55.97;34.50;;;3.10;97.60;;;;;;6187147;23;20466;-61
2024/02/02 00:26:31;;;;;;;59.17;34.70;;;3.10;97.60;;;;;;6161450;23;20245;-61
2024/02/02 00:29:00;;;;;;;71.80;39.27;;;3.00;97.60;;;;;;6161100;23;20182;-61
2024/02/02 00:31:27;;;;;;;64.70;35.53;;;3.00;97.60;;;;;;6187161;23;20671;-61
2024/02/02 00:33:54;;;;;;;67.43;38.10;;;3.00;97.60;;;;;;6187367;23;20202;-61
2024/02/02 00:36:22;;;;;;;69.30;38.27;;;3.00;97.70;;;;;;6186299;23;20201;-61
2024/02/02 00:38:50;;;;;;;67.83;39.40;;;3.00;97.70;;;;;;6192858;23;20562;-61
2024/02/02 00:41:18;;;;;;;70.30;39.63;;;3.00;97.80;;;;;;6220658;23;20263;-61
2024/02/02 00:43:46;;;;;;;64.77;37.03;;;3.00;97.80;;;;;;6220980;23;20691;-61
2024/02/02 00:46:15;;;;;;;63.93;34.97;;;3.00;97.80;;;;;;6195952;23;20189;-62
2024/02/02 00:48:43;;;;;;;67.90;37.63;;;3.10;97.80;;;;;;6196687;23;20182;-61
2024/02/02 00:51:11;;;;;;;60.70;35.37;;;3.10;97.70;;;;;;6220897;23;20235;-61
2024/02/02 00:53:39;;;;;;;68.17;35.90;;;3.00;97.80;;;;;;6221081;23;20259;-61
2024/02/02 00:56:08;;;;;;;65.07;37.33;;;3.10;97.80;;;;;;6196444;23;20188;-61
2024/02/02 00:58:36;;;;;;;60.93;36.87;;;3.00;97.80;;;;;;6247452;23;20253;-61
2024/02/02 01:01:05;;;;;;;61.73;33.67;;;3.00;97.80;;;;;;6220574;23;20251;-61
2024/02/02 01:03:37;;;;;;;56.90;33.10;;;3.10;97.80;;;;;;6220766;23;20181;-61
2024/02/02 01:06:05;;;;;;;69.87;36.60;;;3.00;97.70;;;;;;6247467;23;20200;-61
2024/02/02 01:08:32;;;;;;;55.67;34.27;;;3.00;97.60;;;;;;6196317;23;20184;-62
2024/02/02 01:11:00;;;;;;;54.67;33.57;;;2.90;97.60;;;;;;6195699;23;20560;-61
2024/02/02 01:13:29;;;;;;;56.93;33.27;;;2.90;97.50;;;;;;6221707;23;20272;-61
2024/02/02 01:15:57;;;;;;;56.40;33.87;;;2.90;97.50;;;;;;6246952;23;20188;-61
2024/02/02 01:18:24;;;;;;;56.27;32.93;;;2.80;97.40;;;;;;6195996;23;20219;-62
2024/02/02 01:20:52;;;;;;;68.87;36.53;;;2.80;97.40;;;;;;6247278;23;20173;-61
2024/02/02 01:23:20;;;;;;;65.50;36.40;;;2.80;97.50;;;;;;6196034;23;20635;-61
2024/02/02 01:25:47;;;;;;;66.63;35.43;;;2.80;97.40;;;;;;6196636;23;20173;-61
2024/02/02 01:28:15;;;;;;;58.47;33.73;;;2.70;97.30;;;;;;6246937;23;20169;-61
2024/02/02 01:30:42;;;;;;;57.13;33.70;;;2.70;97.30;;;;;;6221050;23;20261;-61
2024/02/02 01:33:11;;;;;;;62.67;34.23;;;2.70;97.20;;;;;;6247111;23;20230;-61
2024/02/02 01:35:41;;;;;;;60.37;32.90;;;2.60;97.10;;;;;;6195986;23;20177;-61
2024/02/02 01:38:10;;;;;;;53.53;33.57;;;2.60;97.10;;;;;;6220357;23;20599;-61
2024/02/02 01:40:38;;;;;;;59.00;33.17;;;2.60;97.10;;;;;;6185646;23;20268;-61
2024/02/02 01:43:06;;;;;;;59.47;33.13;;;2.60;97.10;;;;;;6184638;23;20200;-61
2024/02/02 01:45:34;;;;;;;58.57;35.00;;;2.50;97.20;;;;;;6184239;23;20179;-61
2024/02/02 01:48:01;;;;;;;56.80;34.93;;;2.50;97.20;;;;;;6183898;23;20183;-61
2024/02/02 01:50:30;;;;;;;58.47;31.93;;;2.50;97.20;;;;;;6184410;23;20174;-61
2024/02/02 01:52:57;;;;;;;67.20;36.00;;;2.50;97.20;;;;;;6184612;23;20241;-61
2024/02/02 01:55:24;;;;;;;73.57;41.20;;;2.50;97.20;;;;;;6183276;23;20183;-61
2024/02/02 01:57:51;;;;;;;69.93;39.73;;;2.50;97.30;;;;;;6183884;23;20171;-61
2024/02/02 02:00:18;;;;;;;74.43;38.67;;;2.50;97.50;;;;;;6184465;23;20202;-61
2024/02/02 02:02:46;;;;;;;65.87;36.90;;;2.50;97.60;;;;;;6183743;23;20178;-61
2024/02/02 02:05:13;;;;;;;68.80;37.60;;;2.60;97.80;;;;;;6184342;23;20237;-61
2024/02/02 02:07:44;;;;;;;58.57;35.43;;;2.60;97.90;;;;;;6183762;23;20195;-61
2024/02/02 02:10:13;;;;;;;60.63;35.20;;;2.60;97.90;;;;;;6184127;23;20170;-61
2024/02/02 02:12:40;;;;;;;66.23;35.53;;;2.60;97.90;;;;;;6182617;23;20265;-61
2024/02/02 02:15:10;;;;;;;67.70;37.80;;;2.60;97.80;;;;;;6184377;23;20187;-61
2024/02/02 02:17:38;;;;;;;69.93;39.07;;;2.60;97.80;;;;;;6184466;23;20182;-61
2024/02/02 02:20:12;;;;;;;68.57;38.27;;;2.60;97.90;;;;;;6183974;23;20249;-61
2024/02/02 02:22:39;;;;;;;64.17;37.63;;;2.60;97.90;;;;;;6184320;23;20182;-61
2024/02/02 02:25:07;;;;;;;64.33;36.73;;;2.60;97.90;;;;;;6184104;23;20185;-61
2024/02/02 02:27:34;;;;;;;65.10;37.93;;;2.60;98.00;;;;;;6184191;23;20187;-61
2024/02/02 02:30:01;;;;;;;63.70;38.40;;;2.60;98.00;;;;;;6183564;23;20424;-61
2024/02/02 02:32:28;;;;;;;67.67;39.13;;;2.60;98.10;;;;;;6184279;23;20206;-61
2024/02/02 02:34:56;;;;;;;62.77;37.93;;;2.60;98.20;;;;;;6184253;23;20451;-61
2024/02/02 02:37:23;;;;;;;61.57;37.60;;;2.60;98.20;;;;;;6184014;23;20538;-61
2024/02/02 02:39:50;;;;;;;60.30;37.00;;;2.60;98.20;;;;;;6214022;23;20678;-61
2024/02/02 02:42:17;;;;;;;61.87;36.80;;;2.70;98.30;;;;;;6244069;23;20660;-61
2024/02/02 02:44:44;;;;;;;70.90;40.03;;;2.70;98.30;;;;;;6244266;23;20170;-61
2024/02/02 02:47:12;;;;;;;67.73;39.80;;;2.70;98.30;;;;;;6244036;23;20184;-61
2024/02/02 02:49:39;;;;;;;63.27;36.33;;;2.70;98.30;;;;;;6243481;23;20174;-61
2024/02/02 02:52:06;;;;;;;66.40;36.97;;;2.70;98.30;;;;;;6244074;23;20250;-61
2024/02/02 02:54:34;;;;;;;66.57;37.03;;;2.70;98.40;;;;;;6243322;23;20180;-61
2024/02/02 02:57:01;;;;;;;64.77;37.03;;;2.70;98.30;;;;;;6246469;23;20486;-61
2024/02/02 02:59:30;;;;;;;62.00;38.80;;;2.70;98.30;;;;;;6246326;23;20219;-61
2024/02/02 03:01:57;;;;;;;64.63;35.90;;;2.60;98.30;;;;;;6245891;23;20187;-61
2024/02/02 03:04:25;;;;;;;71.27;36.07;;;2.60;98.30;;;;;;6246376;23;20233;-61
2024/02/02 03:06:52;;;;;;;63.73;36.17;;;2.60;98.30;;;;;;6246512;23;20430;-61
2024/02/02 03:09:19;;;;;;;61.00;35.03;;;2.60;98.20;;;;;;6246012;23;20176;-61
2024/02/02 03:11:46;;;;;;;53.20;33.43;;;2.50;98.00;;;;;;6245925;23;20205;-61
2024/02/02 03:14:14;;;;;;;54.43;32.10;;;2.50;98.00;;;;;;6246202;23;20610;-61
2024/02/02 03:16:41;;;;;;;54.37;34.27;;;2.40;98.00;;;;;;6245565;23;20170;-62
2024/02/02 03:19:08;;;;;;;55.90;34.47;;;2.40;98.00;;;;;;6246088;23;20616;-61
2024/02/02 03:21:35;;;;;;;63.47;37.57;;;2.40;98.00;;;;;;6245514;23;20173;-61
2024/02/02 03:24:02;;;;;;;63.77;35.97;;;2.30;97.90;;;;;;6246142;23;20170;-61
2024/02/02 03:26:29;;;;;;;57.37;36.27;;;2.30;97.90;;;;;;6245784;23;20175;-61
2024/02/02 03:28:57;;;;;;;60.17;36.17;;;2.30;97.90;;;;;;6246325;23;20187;-61
2024/02/02 03:31:24;;;;;;;55.67;33.50;;;2.20;97.90;;;;;;6245850;23;20459;-61
2024/02/02 03:33:51;;;;;;;55.80;33.73;;;2.20;97.90;;;;;;6218887;23;20177;-61
2024/02/02 03:36:18;;;;;;;57.87;34.50;;;2.20;98.00;;;;;;6245588;23;20230;-61
2024/02/02 03:38:45;;;;;;;58.53;34.73;;;2.20;98.00;;;;;;6245153;23;20184;-61
2024/02/02 03:41:13;;;;;;;61.80;37.00;;;2.10;97.90;;;;;;6245843;23;20216;-61
2024/02/02 03:43:41;;;;;;;63.23;36.23;;;2.10;98.00;;;;;;6244618;23;20181;-61
2024/02/02 03:46:08;;;;;;;59.17;34.87;;;2.10;98.00;;;;;;6245868;23;20175;-61
2024/02/02 03:48:35;;;;;;;61.37;36.53;;;2.10;98.00;;;;;;6245432;23;20178;-61
2024/02/02 03:51:02;;;;;;;51.93;32.57;;;2.10;98.10;;;;;;6245205;23;20247;-61
2024/02/02 03:53:29;;;;;;;58.80;34.70;;;2.20;98.00;;;;;;6245373;23;20481;-61
2024/02/02 03:55:56;;;;;;;57.97;33.77;;;2.10;97.90;;;;;;6245929;23;20514;-61
2024/02/02 03:58:23;;;;;;;65.83;34.63;;;2.10;97.90;;;;;;6245649;23;20482;-61
2024/02/02 04:00:50;;;;;;;62.90;36.53;;;2.10;97.90;;;;;;6245044;23;20189;-61
2024/02/02 04:03:17;;;;;;;65.83;35.63;;;2.10;98.00;;;;;;6245713;23;20177;-61
2024/02/02 04:05:44;;;;;;;59.63;35.83;;;2.10;98.00;;;;;;6218728;23;20177;-61
2024/02/02 04:08:12;;;;;;;62.03;36.30;;;2.10;98.00;;;;;;6245520;23;20260;-61
2024/02/02 04:10:39;;;;;;;57.37;34.73;;;2.10;98.00;;;;;;6245079;23;20174;-61
2024/02/02 04:13:06;;;;;;;57.07;34.60;;;2.20;98.10;;;;;;6245880;23;20212;-61
2024/02/02 04:15:33;;;;;;;59.37;35.20;;;2.20;98.10;;;;;;6245084;23;20258;-61
2024/02/02 04:18:00;;;;;;;52.20;32.97;;;2.20;98.20;;;;;;6245837;23;20252;-61
2024/02/02 04:20:27;;;;;;;57.63;33.77;;;2.20;98.10;;;;;;6245686;23;20511;-61
2024/02/02 04:22:54;;;;;;;54.10;34.33;;;2.20;98.10;;;;;;6245686;23;20169;-61
2024/02/02 04:25:21;;;;;;;56.70;33.20;;;2.20;98.00;;;;;;6244862;23;20665;-61
2024/02/02 04:27:48;;;;;;;57.90;35.23;;;2.20;98.00;;;;;;6245520;23;20205;-61
2024/02/02 04:30:17;;;;;;;53.50;34.03;;;2.20;98.00;;;;;;6245179;23;20179;-61
2024/02/02 04:32:44;;;;;;;56.23;35.17;;;2.20;98.00;;;;;;6246738;23;20175;-63
2024/02/02 04:35:12;;;;;;;55.20;33.50;;;2.20;98.00;;;;;;6195790;23;20174;-62
2024/02/02 04:37:39;;;;;;;60.33;35.80;;;2.30;98.10;;;;;;6221770;23;20442;-61
2024/02/02 04:40:09;;;;;;;58.60;33.30;;;2.30;98.30;;;;;;6220874;23;20280;-62
2024/02/02 04:42:37;;;;;;;53.37;33.10;;;2.40;98.30;;;;;;6221268;23;20181;-62
2024/02/02 04:45:05;;;;;;;55.63;33.83;;;2.40;98.40;;;;;;6247342;23;20170;-62
2024/02/02 04:47:32;;;;;;;55.97;32.97;;;2.50;98.40;;;;;;6221019;23;20251;-62
2024/02/02 04:49:59;;;;;;;56.30;32.73;;;2.50;98.40;;;;;;6247654;23;20211;-62
2024/02/02 04:52:26;;;;;;;57.40;32.20;;;2.50;98.40;;;;;;6221453;23;20184;-62
2024/02/02 04:54:55;;;;;;;54.67;31.27;;;2.60;98.40;;;;;;6221010;23;20177;-62
2024/02/02 04:57:23;;;;;;;52.30;31.30;;;2.60;98.40;;;;;;6248125;23;20607;-61
2024/02/02 04:59:50;;;;;;;52.70;31.53;;;2.60;98.30;;;;;;6220989;23;20211;-62
2024/02/02 05:02:18;;;;;;;53.87;31.13;;;2.50;98.10;;;;;;6247290;23;20472;-61
2024/02/02 05:04:46;;;;;;;54.20;32.67;;;2.50;98.10;;;;;;6247683;23;20212;-62
2024/02/02 05:07:14;;;;;;;56.57;34.03;;;2.50;98.20;;;;;;6221145;23;20244;-61
2024/02/02 05:09:41;;;;;;;56.93;33.10;;;2.50;98.20;;;;;;6221234;23;20184;-61
2024/02/02 05:12:09;;;;;;;52.70;33.57;;;2.50;98.30;;;;;;6246906;23;20176;-62
2024/02/02 05:14:36;;;;;;;59.97;32.00;;;2.50;98.40;;;;;;6221267;23;20176;-62
2024/02/02 05:17:03;;;;;;;53.07;32.57;;;2.60;98.50;;;;;;6220909;23;20172;-61
2024/02/02 05:19:31;;;;;;;49.87;31.60;;;2.60;98.50;;;;;;6246873;23;20225;-61
2024/02/02 05:21:59;;;;;;;56.23;32.67;;;2.60;98.50;;;;;;6221225;23;20178;-61
2024/02/02 05:24:26;;;;;;;51.60;30.63;;;2.60;98.60;;;;;;6221364;23;20207;-61
2024/02/02 05:27:12;;;;;;;51.37;30.80;;;2.60;98.50;;;;;;6199156;23;20190;-61
2024/02/02 05:29:42;;;;;;;56.43;32.03;;;2.60;98.60;;;;;;6196154;23;20192;-61
2024/02/02 05:32:10;;;;;;;53.53;30.97;;;2.50;98.60;;;;;;6220823;23;20511;-64
2024/02/02 05:34:37;;;;;;;59.73;31.73;;;2.50;98.60;;;;;;6220674;23;20239;-61
2024/02/02 05:37:05;;;;;;;53.03;32.13;;;2.50;98.60;;;;;;6220811;23;20264;-61
2024/02/02 05:39:33;;;;;;;53.20;31.77;;;2.50;98.60;;;;;;6203626;23;20224;-62
2024/02/02 05:42:01;;;;;;;55.00;30.50;;;2.50;98.60;;;;;;6160699;23;20633;-61
2024/02/02 05:44:28;;;;;;;49.87;31.53;;;2.40;98.50;;;;;;6136595;23;20189;-61
2024/02/02 05:46:56;;;;;;;51.83;30.53;;;2.40;98.60;;;;;;6185833;23;20174;-62
2024/02/02 05:49:24;;;;;;;48.17;29.87;;;2.40;98.60;;;;;;6187001;23;20174;-62
2024/02/02 05:51:52;;;;;;;55.67;30.53;;;2.40;98.50;;;;;;6185564;23;20209;-61
2024/02/02 05:54:20;;;;;;;49.23;30.10;;;2.40;98.50;;;;;;6186897;23;20449;-61
2024/02/02 05:56:47;;;;;;;53.80;30.70;;;2.30;98.50;;;;;;6185272;23;20207;-61
2024/02/02 05:59:15;;;;;;;47.40;29.03;;;2.30;98.50;;;;;;6161138;23;20189;-62
2024/02/02 06:01:45;;;;;;;48.97;30.50;;;2.30;98.50;;;;;;6185363;23;20240;-62
2024/02/02 06:04:14;;;;;;;50.27;30.77;;;2.30;98.50;;;;;;6184775;23;20604;-62
2024/02/02 06:06:42;;;;;;;47.43;28.33;;;2.30;98.50;;;;;;6185084;23;20189;-61
2024/02/02 06:09:13;;;;;;;49.23;28.70;;;2.30;98.50;;;;;;6185031;23;20180;-63
2024/02/02 06:11:42;;;;;;;46.03;29.53;;;2.20;98.50;;;;;;6160766;23;20233;-61
2024/02/02 06:14:10;;;;;;;49.77;30.30;;;2.20;98.50;;;;;;6185577;23;20196;-62
2024/02/02 06:16:38;;;;;;;41.07;28.23;;;2.20;98.50;;;;;;6185785;23;20195;-62
2024/02/02 06:19:07;;;;;;;49.10;28.13;;;2.20;98.60;;;;;;6161147;23;20265;-62
2024/02/02 06:21:35;;;;;;;45.67;28.67;;;2.20;98.60;;;;;;6185399;23;20197;-62
2024/02/02 06:24:04;;;;;;;43.50;26.90;;;2.20;98.60;;;;;;6186241;23;20580;-61
2024/02/02 06:26:31;;;;;;;50.47;30.63;;;2.20;98.60;;;;;;6185360;23;20657;-62
2024/02/02 06:29:00;;;;;;;52.77;29.63;;;2.30;98.90;;;;;;6161247;23;20222;-62
2024/02/02 06:31:28;;;;;;;46.60;29.40;;;2.20;98.60;;;;;;6186556;23;20175;-62
2024/02/02 06:33:57;;;;;;;46.87;28.80;;;2.20;98.60;;;;;;6161053;23;20200;-63
2024/02/02 06:36:27;;;;;;;47.23;27.83;;;2.20;98.60;;;;;;6185132;23;20182;-62
2024/02/02 06:38:56;;;;;;;45.43;27.37;;;2.20;98.60;;;;;;6194450;23;20193;-63
2024/02/02 06:41:24;;;;;;;49.73;30.10;;;2.30;98.70;;;;;;6220917;23;20500;-62
2024/02/02 06:43:53;;;;;;;43.87;27.87;;;2.30;98.80;;;;;;6245850;23;20172;-62
2024/02/02 06:46:21;;;;;;;51.63;29.07;;;2.30;98.80;;;;;;6220225;23;20188;-62
2024/02/02 06:48:49;;;;;;;46.20;28.13;;;2.40;98.90;;;;;;6220462;23;20202;-63
2024/02/02 06:51:17;;;;;;;50.97;29.13;;;2.40;98.90;;;;;;6220569;23;20743;-63
2024/02/02 06:53:45;;;;;;;51.23;28.63;;;2.50;99.00;;;;;;6247285;23;20584;-61
2024/02/02 06:56:31;;;;;;;51.40;29.83;;;2.60;99.00;;;;;;6247105;23;20247;-60
2024/02/02 06:59:00;;;;;;;46.73;28.13;;;2.70;99.10;;;;;;6246973;23;20473;-60
2024/02/02 07:01:29;;;;;;;51.17;27.40;;;2.90;98.90;;;;;;6195573;23;20549;-60
2024/02/02 07:03:57;;;;;;;46.67;27.17;;;3.00;98.70;;;;;;6246934;23;20177;-61
2024/02/02 07:06:25;;;;;;;43.50;27.80;;;3.10;98.50;;;;;;6219414;23;20181;-61
2024/02/02 07:09:04;;;;;;;44.93;27.83;;;3.20;98.20;;;;;;6246976;23;20256;-62
2024/02/02 07:12:10;;;;;;;46.00;26.50;;;3.20;98.00;;;;;;6195378;23;20181;-61
2024/02/02 07:14:42;;;;;;;43.40;26.97;;;3.20;98.10;;;;;;6219937;23;20192;-61
2024/02/02 07:17:33;;;;;;;39.43;25.17;;;3.30;98.20;;;;;;6220837;23;20169;-61
2024/02/02 07:20:06;;;;;;;39.13;25.27;;;3.40;98.30;;;;;;6226540;23;20696;-61
2024/02/02 07:22:41;;;;;;;42.07;25.67;;;3.60;98.20;;;;;;6220959;23;20547;-61
2024/02/02 07:25:17;;;;;;;39.20;25.90;;;3.80;98.10;;;;;;6220501;23;20170;-61
2024/02/02 07:27:52;;;;;;;39.40;25.70;;;4.00;97.80;;;;;;6195436;23;20208;-61
2024/02/02 07:30:47;;;;;;;41.13;24.30;;;4.10;97.50;;;;;;6246595;23;20172;-60
2024/02/02 07:33:24;;;;;;;37.77;22.57;;;4.30;97.40;;;;;;6221488;23;20221;-59
2024/02/02 07:35:59;;;;;;;40.57;24.57;;;4.50;97.00;;;;;;6246689;23;20180;-59
2024/02/02 07:38:45;;;;;;;37.80;24.13;;;4.60;96.60;;;;;;6221745;23;20577;-60
2024/02/02 07:41:20;;;;;;;39.43;25.13;;;4.70;96.30;;;;;;6221702;23;20192;-60
2024/02/02 07:43:49;;;;;;;40.27;24.03;;;4.60;96.30;;;;;;6222108;23;20214;-59
2024/02/02 07:46:17;;;;;;;35.93;24.47;;;4.50;96.50;;;;;;6248582;23;20169;-60
2024/02/02 07:48:46;;;;;;;37.50;25.10;;;4.60;96.90;;;;;;6248151;23;20585;-60
2024/02/02 07:51:18;;;;;;;40.43;24.93;;;4.70;96.90;;;;;;6222647;23;20219;-60
2024/02/02 07:53:47;;;;;;;42.40;26.20;;;4.90;96.80;;;;;;6221910;23;20173;-62
2024/02/02 07:56:18;;;;;;;44.53;24.53;;;5.00;96.70;;;;;;6197244;23;20182;-59
2024/02/02 07:58:47;;;;;;;37.37;24.10;;;5.10;96.70;;;;;;6248091;23;20168;-59
2024/02/02 08:01:16;;;;;;;42.43;24.83;;;5.20;96.50;;;;;;6248068;23;20209;-59
2024/02/02 08:03:46;;;;;;;39.47;23.43;;;5.30;96.40;;;;;;6221755;23;20238;-59
2024/02/02 08:06:14;;;;;;;36.17;24.07;;;5.30;96.40;;;;;;6248152;23;20166;-59
2024/02/02 08:08:42;;;;;;;34.67;22.60;;;5.40;96.50;;;;;;6247631;23;20167;-59
2024/02/02 08:11:11;;;;;;;36.43;23.40;;;5.40;96.50;;;;;;6221428;23;20186;-59
2024/02/02 08:13:39;;;;;;;32.90;21.03;;;5.50;96.60;;;;;;6221908;23;20181;-59
2024/02/02 08:16:08;;;;;;;36.40;20.77;;;5.60;96.70;;;;;;6196973;23;20582;-60
2024/02/02 08:18:38;;;;;;;34.17;21.73;;;5.60;96.70;;;;;;6247971;23;20174;-60
2024/02/02 08:21:07;;;;;;;28.43;21.60;;;5.60;96.70;;;;;;6248242;23;20204;-60
2024/02/02 08:23:37;;;;;;;36.30;21.23;;;5.70;96.70;;;;;;6196446;23;20231;-59
2024/02/02 08:26:06;;;;;;;33.97;20.27;;;5.80;96.80;;;;;;6221819;23;20208;-59
2024/02/02 08:28:35;;;;;;;35.47;19.67;;;5.80;96.80;;;;;;6221173;23;20208;-60
2024/02/02 08:31:18;;;;;;;36.57;20.67;;;5.90;96.80;;;;;;6221424;23;20173;-60
2024/02/02 08:33:46;;;;;;;33.20;20.20;;;6.10;96.70;;;;;;6221577;23;20248;-59
2024/02/02 08:36:15;;;;;;;31.97;20.80;;;6.20;96.60;;;;;;6247417;23;20180;-60
2024/02/02 08:38:43;;;;;;;33.43;22.40;;;6.30;96.50;;;;;;6247448;23;20536;-59
2024/02/02 08:41:12;;;;;;;33.63;23.40;;;6.40;96.40;;;;;;6221324;23;20205;-59
2024/02/02 08:43:41;;;;;;;41.23;26.47;;;6.50;96.30;;;;;;6220968;23;20216;-61
2024/02/02 08:46:12;;;;;;;40.50;26.03;;;6.70;96.30;;;;;;6247736;23;20538;-59
2024/02/02 08:48:49;;;;;;;40.33;27.63;;;6.80;96.30;;;;;;6221564;23;20197;-60
2024/02/02 08:51:22;;;;;;;46.37;29.93;;;6.90;96.20;;;;;;6196432;23;20201;-59
2024/02/02 08:54:14;;;;;;;38.87;27.33;;;7.10;96.20;;;;;;6246440;23;20162;-59
2024/02/02 08:56:46;;;;;;;43.10;28.27;;;7.20;96.20;;;;;;6229088;23;20269;-60
2024/02/02 08:59:32;;;;;;;47.03;29.13;;;7.30;96.10;;;;;;6221454;23;20237;-59
2024/02/02 09:02:06;;;;;;;45.33;29.27;;;7.50;96.00;;;;;;6196119;23;20217;-60
2024/02/02 09:04:52;;;;;;;47.87;31.03;;;7.60;95.90;;;;;;6246957;23;20241;-60
2024/02/02 09:07:21;;;;;;;44.57;29.57;;;7.70;95.80;;;;;;6246560;23;20165;-60
2024/02/02 09:09:52;;;;;;;52.23;32.00;;;7.80;95.80;;;;;;6221161;23;20179;-60
2024/02/02 09:12:27;;;;;;;49.10;31.50;;;7.90;95.70;;;;;;6247244;23;20174;-60
2024/02/02 09:14:56;;;;;;;44.90;30.13;;;8.00;95.60;;;;;;6221425;23;20159;-60
2024/02/02 09:17:27;;;;;;;52.47;33.83;;;8.20;95.60;;;;;;6247329;23;20216;-60
2024/02/02 09:19:55;;;;;;;48.77;31.87;;;8.30;95.50;;;;;;6247619;23;20573;-60
2024/02/02 09:22:27;;;;;;;45.73;30.97;;;8.40;95.40;;;;;;6220300;23;20208;-59
2024/02/02 09:24:55;;;;;;;41.47;30.50;;;8.50;95.40;;;;;;6222020;23;20189;-60
2024/02/02 09:27:38;;;;;;;49.93;32.87;;;8.60;95.30;;;;;;6247167;23;20188;-60
2024/02/02 09:30:21;;;;;;;44.83;30.93;;;8.60;95.20;;;;;;6247471;23;20219;-59
2024/02/02 09:32:49;;;;;;;49.43;32.20;;;8.80;95.20;;;;;;6247279;23;20163;-60
2024/02/02 09:35:53;;;;;;;48.00;32.90;;;8.90;95.20;;;;;;6220523;23;20259;-60
2024/02/02 09:38:21;;;;;;;48.23;32.93;;;9.00;95.10;;;;;;6246726;22;20183;-60
2024/02/02 09:41:01;;;;;;;50.83;33.60;;;9.10;95.10;;;;;;6277129;22;20306;-60
2024/02/02 09:43:36;;;;;;;51.00;33.77;;;9.10;95.00;;;;;;6276882;22;20152;-60
2024/02/02 09:46:20;;;;;;;52.70;34.10;;;9.20;95.00;;;;;;6277793;22;20196;-60
2024/02/02 09:49:03;;;;;;;43.00;33.13;;;9.20;95.00;;;;;;6277575;22;20157;-60
2024/02/02 09:52:03;;;;;;;50.03;32.97;;;9.30;95.00;;;;;;6277641;22;20159;-60
2024/02/02 09:55:04;;;;;;;47.23;32.53;;;9.40;95.00;;;;;;6250798;22;20178;-60
2024/02/02 09:57:55;;;;;;;49.60;32.07;;;9.40;94.80;;;;;;6277727;22;20233;-60
2024/02/02 10:00:33;;;;;;;44.67;33.27;;;9.50;94.80;;;;;;6225890;22;20481;-60
2024/02/02 10:03:22;;;;;;;55.73;35.90;;;9.60;94.80;;;;;;6250100;22;20233;-60
2024/02/02 10:06:19;;;;;;;50.77;34.73;;;9.60;94.90;;;;;;6277571;22;20246;-59
2024/02/02 10:09:23;;;;;;;50.73;34.80;;;9.70;95.00;;;;;;6277279;22;20160;-60
2024/02/02 10:11:57;;;;;;;43.63;32.27;;;9.90;95.10;;;;;;6251042;22;20247;-59
2024/02/02 10:14:39;;;;;;;48.00;33.03;;;10.00;95.00;;;;;;6277779;22;20161;-59
2024/02/02 10:17:19;;;;;;;50.93;35.60;;;10.10;95.00;;;;;;6277051;22;20191;-59
2024/02/02 10:20:01;;;;;;;54.10;34.90;;;10.20;94.90;;;;;;6250721;22;20164;-60
2024/02/02 10:22:49;;;;;;;51.03;35.17;;;10.30;94.80;;;;;;6277516;22;20194;-60
2024/02/02 10:25:51;;;;;;;43.73;34.40;;;10.40;94.70;;;;;;6251118;22;20169;-60
2024/02/02 10:28:35;;;;;;;44.97;33.77;;;10.50;94.60;;;;;;6277456;22;20158;-60
2024/02/02 10:31:30;;;;;;;50.30;34.10;;;10.70;94.70;;;;;;6277630;22;20163;-60
2024/02/02 10:34:21;;;;;;;50.97;35.20;;;10.80;94.60;;;;;;6251386;22;20448;-59
2024/02/02 10:36:59;;;;;;;48.33;34.47;;;10.90;94.40;;;;;;6251741;22;20315;-60
2024/02/02 10:39:36;;;;;;;51.40;36.03;;;10.90;94.30;;;;;;6250336;22;20632;-59
2024/02/02 10:42:28;;;;;;;45.77;34.17;;;11.00;94.20;;;;;;6277247;22;20189;-60
2024/02/02 10:45:12;;;;;;;46.50;33.87;;;11.20;94.20;;;;;;6250615;22;20177;-60
2024/02/02 10:47:56;;;;;;;51.80;34.77;;;11.20;93.90;;;;;;6277356;22;20161;-59
2024/02/02 10:50:37;;;;;;;43.67;31.93;;;11.30;93.70;;;;;;6276915;22;20210;-59
2024/02/02 10:53:19;;;;;;;45.53;33.60;;;11.30;93.50;;;;;;6277311;22;20168;-59
2024/02/02 10:56:35;;;;;;;47.90;33.90;;;11.30;93.40;;;;;;6225279;22;20181;-60
2024/02/02 10:59:22;;;;;;;45.13;33.63;;;11.40;93.60;;;;;;6257848;22;20175;-60
2024/02/02 11:02:01;;;;;;;44.93;32.37;;;11.50;93.60;;;;;;6250394;22;20250;-59
2024/02/02 11:04:53;;;;;;;48.40;32.57;;;11.70;93.60;;;;;;6277445;22;20164;-59
2024/02/02 11:07:27;;;;;;;40.47;31.23;;;11.80;93.40;;;;;;6277241;22;20259;-60
2024/02/02 11:10:10;;;;;;;43.50;31.73;;;11.90;93.40;;;;;;6276578;22;20164;-60
2024/02/02 11:12:57;;;;;;;44.20;32.47;;;12.00;92.90;;;;;;6277425;22;20160;-60
2024/02/02 11:15:54;;;;;;;42.93;31.73;;;12.00;92.70;;;;;;6251164;22;20173;-60
2024/02/02 11:18:50;;;;;;;46.17;31.47;;;12.00;92.40;;;;;;6279719;22;20158;-59
2024/02/02 11:21:18;;;;;;;42.23;31.00;;;11.90;92.20;;;;;;6203176;22;20216;-60
2024/02/02 11:24:10;;;;;;;41.87;30.03;;;11.90;92.30;;;;;;6279552;22;20168;-60
2024/02/02 11:27:01;;;;;;;39.37;29.73;;;11.90;92.50;;;;;;6278829;22;20184;-60
2024/02/02 11:29:46;;;;;;;39.80;29.83;;;12.00;92.40;;;;;;6279551;22;20196;-58
2024/02/02 11:32:34;;;;;;;41.83;30.13;;;12.10;92.20;;;;;;6227607;22;20630;-58
2024/02/02 11:35:18;;;;;;;39.80;29.47;;;12.30;92.20;;;;;;6279598;22;20184;-58
2024/02/02 11:38:07;;;;;;;35.53;28.43;;;12.40;92.00;;;;;;6204720;22;20246;-58
2024/02/02 11:40:37;;;;;;;36.97;28.30;;;12.50;91.50;;;;;;6251845;22;20295;-58
2024/02/02 11:43:08;;;;;;;36.93;27.93;;;12.60;91.20;;;;;;6278942;22;20202;-58
2024/02/02 11:45:42;;;;;;;34.93;27.77;;;12.60;91.20;;;;;;6251963;22;20180;-57
2024/02/02 11:48:20;;;;;;;42.13;28.73;;;12.70;91.30;;;;;;6252629;22;20513;-57
2024/02/02 11:50:49;;;;;;;38.57;27.83;;;12.80;91.30;;;;;;6278359;22;20157;-58
2024/02/02 11:53:32;;;;;;;41.03;29.00;;;13.00;91.30;;;;;;6252299;22;20196;-58
2024/02/02 11:56:26;;;;;;;39.10;26.40;;;13.10;91.30;;;;;;6279104;22;20165;-58
2024/02/02 11:59:13;;;;;;;38.00;29.10;;;13.30;91.10;;;;;;6252396;22;20174;-58
2024/02/02 12:01:52;;;;;;;40.47;28.60;;;13.40;90.60;;;;;;6227855;22;20207;-58
2024/02/02 12:04:48;;;;;;;35.63;28.03;;;13.40;90.20;;;;;;6278481;22;20185;-58
2024/02/02 12:07:50;;;;;;;45.03;29.60;;;13.50;90.30;;;;;;6278118;22;20592;-58
2024/02/02 12:10:22;;;;;;;39.20;28.17;;;13.60;90.40;;;;;;6252120;22;20185;-58
2024/02/02 12:12:55;;;;;;;39.83;29.63;;;13.80;90.40;;;;;;6251760;22;20189;-58
2024/02/02 12:15:23;;;;;;;39.73;29.73;;;13.90;88.90;;;;;;6226598;22;20173;-58
2024/02/02 12:17:52;;;;;;;38.00;30.20;;;13.90;88.40;;;;;;6277755;22;20181;-58
2024/02/02 12:20:21;;;;;;;44.03;31.37;;;13.90;87.80;;;;;;6226804;22;20600;-59
2024/02/02 12:22:50;;;;;;;41.53;31.00;;;13.90;88.50;;;;;;6252709;22;20275;-58
2024/02/02 12:25:19;;;;;;;41.17;30.17;;;14.00;88.90;;;;;;6278301;22;20183;-58
2024/02/02 12:27:47;;;;;;;40.53;31.37;;;14.00;88.90;;;;;;6226941;22;20176;-59
2024/02/02 12:30:16;;;;;;;44.10;31.70;;;14.10;88.60;;;;;;6278798;22;20589;-59
2024/02/02 12:33:05;;;;;;;42.73;32.10;;;14.20;88.20;;;;;;6251877;22;20175;-59
2024/02/02 12:35:33;;;;;;;43.50;34.63;;;14.30;87.60;;;;;;6278666;22;20584;-58
2024/02/02 12:38:01;;;;;;;42.73;31.67;;;14.30;86.60;;;;;;6278223;22;20169;-58
2024/02/02 12:40:31;;;;;;;50.47;34.53;;;14.30;86.20;;;;;;6278025;22;20254;-58
2024/02/02 12:43:02;;;;;;;44.03;32.87;;;14.30;86.10;;;;;;6277869;22;20195;-58
2024/02/02 12:45:33;;;;;;;45.50;32.60;;;14.20;85.80;;;;;;6252571;22;20561;-59
2024/02/02 12:48:02;;;;;;;47.53;34.20;;;14.20;85.70;;;;;;6252105;22;20162;-58
2024/02/02 12:50:31;;;;;;;49.73;35.07;;;14.10;86.00;;;;;;6278387;22;20169;-58
2024/02/02 12:53:01;;;;;;;47.03;35.07;;;14.00;86.30;;;;;;6226141;22;20254;-58
2024/02/02 12:55:35;;;;;;;50.97;36.40;;;14.00;86.40;;;;;;6251586;22;20804;-58
2024/02/02 12:58:04;;;;;;;46.07;33.87;;;14.00;86.60;;;;;;6226456;22;20481;-58
2024/02/02 13:00:33;;;;;;;48.27;34.43;;;14.10;86.70;;;;;;6251777;22;20192;-58
2024/02/02 13:03:05;;;;;;;47.93;33.87;;;14.10;86.60;;;;;;6251051;22;20259;-59